createdAt,value
2022-11-09T00:02:22.479Z,101289.15
2022-11-09T00:05:15.429Z,101289.64
2022-11-09T00:08:13.895Z,101292.62
2022-11-09T00:11:10.834Z,101293.97
2022-11-09T00:14:03.180Z,101296.14
2022-11-09T00:16:57.060Z,101300.12
2022-11-09T00:19:48.678Z,101302.12
2022-11-09T00:22:41.121Z,101304.26
2022-11-09T00:25:34.503Z,101300.28
2022-11-09T00:28:24.773Z,101301.94
2022-11-09T00:31:18.494Z,101302.78
2022-11-09T00:34:11.096Z,101303.77
2022-11-09T00:37:01.483Z,101302.26
2022-11-09T00:39:54.393Z,101302.91
2022-11-09T00:42:46.711Z,101307.87
2022-11-09T00:45:41.852Z,101309.05
2022-11-09T00:48:34.265Z,101305.88
2022-11-09T00:51:26.965Z,101296.77
2022-11-09T00:54:19.307Z,101299.74
2022-11-09T00:57:11.458Z,101303.70
2022-11-09T01:00:04.353Z,101307.16
2022-11-09T01:02:56.243Z,101310.45
2022-11-09T01:05:50.901Z,101314.27
2022-11-09T01:08:44.322Z,101308.12
2022-11-09T01:11:36.713Z,101309.28
2022-11-09T01:14:30.025Z,101304.97
2022-11-09T01:17:22.630Z,101303.98
2022-11-09T01:20:15.484Z,101299.50
2022-11-09T01:23:07.706Z,101297.52
2022-11-09T01:26:04.545Z,101292.08
2022-11-09T01:28:56.718Z,101300.84
2022-11-09T01:31:50.561Z,101295.39
2022-11-09T01:34:42.610Z,101287.27
2022-11-09T01:37:35.033Z,101291.58
2022-11-09T01:40:28.362Z,101287.94
2022-11-09T01:43:23.206Z,101290.58
2022-11-09T01:46:22.169Z,101292.24
2022-11-09T01:49:20.890Z,101291.43
2022-11-09T01:52:18.647Z,101294.08
2022-11-09T01:55:13.540Z,101287.12
2022-11-09T01:58:11.569Z,101285.46
2022-11-09T02:01:05.319Z,101289.92
2022-11-09T02:04:03.194Z,101296.20
2022-11-09T02:06:57.977Z,101291.08
2022-11-09T02:09:55.879Z,101293.88
2022-11-09T02:12:48.626Z,101287.09
2022-11-09T02:15:45.675Z,101292.54
2022-11-09T02:18:41.013Z,101290.19
2022-11-09T02:21:34.077Z,101294.00
2022-11-09T02:24:27.315Z,101289.84
2022-11-09T02:27:20.159Z,101285.70
2022-11-09T02:30:16.425Z,101292.13
2022-11-09T02:33:08.356Z,101292.45
2022-11-09T02:36:00.182Z,101292.77
2022-11-09T02:38:54.362Z,101292.11
2022-11-09T02:41:49.859Z,101289.77
2022-11-09T02:44:45.192Z,101287.62
2022-11-09T02:47:37.108Z,101294.72
2022-11-09T02:50:30.979Z,101292.39
2022-11-09T02:53:25.062Z,101293.70
2022-11-09T02:56:17.933Z,101295.98
2022-11-09T02:59:10.756Z,101301.45
2022-11-09T03:02:04.433Z,101298.28
2022-11-09T03:04:57.055Z,101299.58
2022-11-09T03:07:50.335Z,101297.25
2022-11-09T03:10:42.981Z,101300.20
2022-11-09T03:13:34.778Z,101304.16
2022-11-09T03:16:27.457Z,101303.80
2022-11-09T03:19:20.098Z,101300.92
2022-11-09T03:22:14.144Z,101297.91
2022-11-09T03:25:08.173Z,101301.86
2022-11-09T03:28:03.909Z,101303.02
2022-11-09T03:30:56.312Z,101300.81
2022-11-09T03:33:49.269Z,101307.27
2022-11-09T03:36:41.502Z,101303.27
2022-11-09T03:39:34.155Z,101302.05
2022-11-09T03:42:25.977Z,101304.19
2022-11-09T03:45:19.545Z,101301.85
2022-11-09T03:48:11.983Z,101302.16
2022-11-09T03:51:03.144Z,101303.45
2022-11-09T03:53:55.640Z,101301.92
2022-11-09T03:56:47.982Z,101308.36
2022-11-09T03:59:40.007Z,101306.03
2022-11-09T04:02:31.843Z,101310.77
2022-11-09T04:05:24.166Z,101308.44
2022-11-09T04:08:17.332Z,101305.28
2022-11-09T04:11:09.567Z,101308.36
2022-11-09T04:14:02.009Z,101307.68
2022-11-09T04:16:54.817Z,101317.73
2022-11-09T04:19:46.696Z,101320.00
2022-11-09T04:22:39.741Z,101328.53
2022-11-09T04:25:31.153Z,101322.87
2022-11-09T04:28:22.807Z,101323.46
2022-11-09T04:31:14.463Z,101319.45
2022-11-09T04:34:07.104Z,101324.35
2022-11-09T04:36:59.516Z,101326.45
2022-11-09T04:39:52.130Z,101329.68
2022-11-09T04:42:44.011Z,101319.87
2022-11-09T04:45:36.892Z,101334.87
2022-11-09T04:48:26.998Z,101335.16
2022-11-09T04:51:19.234Z,101330.33
2022-11-09T04:54:12.085Z,101322.70
2022-11-09T04:57:03.907Z,101335.06
2022-11-09T04:59:56.352Z,101325.77
2022-11-09T05:02:48.275Z,101336.49
2022-11-09T05:05:48.000Z,101331.34
2022-11-09T05:08:40.919Z,101335.94
2022-11-09T05:11:33.998Z,101339.72
2022-11-09T05:14:26.044Z,101350.41
2022-11-09T05:17:19.193Z,101350.70
2022-11-09T05:20:12.072Z,101351.83
2022-11-09T05:23:22.446Z,101346.00
2022-11-09T05:26:16.685Z,101357.53
2022-11-09T05:29:10.577Z,101364.77
2022-11-09T05:32:03.011Z,101374.63
2022-11-09T05:34:55.267Z,101368.66
2022-11-09T05:37:50.495Z,101378.41
2022-11-09T05:40:43.161Z,101385.64
2022-11-09T05:43:35.445Z,101386.61
2022-11-09T05:46:27.363Z,101386.61
2022-11-09T05:49:19.837Z,101391.05
2022-11-09T05:52:12.321Z,101400.50
2022-11-09T05:55:03.951Z,101404.80
2022-11-09T05:57:57.558Z,101396.73
2022-11-09T06:00:49.975Z,101404.52
2022-11-09T06:03:44.487Z,101406.87
2022-11-09T06:06:36.414Z,101406.59
2022-11-09T06:09:29.193Z,101403.66
2022-11-09T06:12:22.705Z,101420.03
2022-11-09T06:15:16.476Z,101417.95
2022-11-09T06:18:08.505Z,101414.87
2022-11-09T06:21:03.363Z,101405.55
2022-11-09T06:23:55.839Z,101412.05
2022-11-09T06:26:47.732Z,101414.27
2022-11-09T06:29:40.525Z,101412.84
2022-11-09T06:32:33.106Z,101413.11
2022-11-09T06:35:25.814Z,101408.22
2022-11-09T06:38:17.636Z,101408.61
2022-11-09T06:41:12.702Z,101414.13
2022-11-09T06:44:05.806Z,101417.84
2022-11-09T06:46:58.041Z,101417.25
2022-11-09T06:49:49.864Z,101418.49
2022-11-09T06:52:42.307Z,101421.23
2022-11-09T06:55:35.552Z,101428.56
2022-11-09T06:58:29.469Z,101430.45
2022-11-09T07:01:29.076Z,101424.42
2022-11-09T07:04:21.081Z,101433.26
2022-11-09T07:07:13.344Z,101431.67
2022-11-09T07:10:04.528Z,101431.75
2022-11-09T07:12:59.926Z,101432.67
2022-11-09T07:15:56.600Z,101432.44
2022-11-09T07:18:49.204Z,101434.30
2022-11-09T07:21:41.681Z,101425.61
2022-11-09T07:24:35.100Z,101436.27
2022-11-09T07:27:28.406Z,101429.73
2022-11-09T07:30:22.458Z,101425.16
2022-11-09T07:33:19.440Z,101421.44
2022-11-09T07:36:18.249Z,101423.97
2022-11-09T07:39:13.229Z,101426.37
2022-11-09T07:42:05.549Z,101416.48
2022-11-09T07:44:58.066Z,101416.20
2022-11-09T07:47:49.821Z,101424.53
2022-11-09T07:50:42.776Z,101421.44
2022-11-09T07:53:35.168Z,101417.50
2022-11-09T07:56:26.931Z,101418.00
2022-11-09T07:59:19.578Z,101421.01
2022-11-09T08:02:12.856Z,101426.66
2022-11-09T08:05:06.164Z,101422.02
2022-11-09T08:08:02.336Z,101430.66
2022-11-09T08:10:54.876Z,101427.67
2022-11-09T08:13:45.419Z,101422.86
2022-11-09T08:16:38.043Z,101421.52
2022-11-09T08:19:30.350Z,101421.16
2022-11-09T08:22:22.792Z,101428.59
2022-11-09T08:25:16.799Z,101431.58
2022-11-09T08:28:14.524Z,101433.72
2022-11-09T08:31:10.739Z,101431.34
2022-11-09T08:34:03.165Z,101426.48
2022-11-09T08:36:54.009Z,101425.25
2022-11-09T08:39:46.245Z,101417.88
2022-11-09T08:42:38.988Z,101417.13
2022-11-09T08:45:31.536Z,101419.39
2022-11-09T08:48:24.599Z,101411.48
2022-11-09T08:51:17.647Z,101422.36
2022-11-09T08:54:11.728Z,101423.41
2022-11-09T08:57:03.554Z,101416.63
2022-11-09T08:59:54.360Z,101416.56
2022-11-09T09:02:46.583Z,101412.67
2022-11-09T09:05:38.830Z,101411.39
2022-11-09T09:08:31.275Z,101409.48
2022-11-09T09:11:24.124Z,101408.55
2022-11-09T09:14:16.572Z,101410.95
2022-11-09T09:17:08.763Z,101404.14
2022-11-09T09:20:00.627Z,101403.02
2022-11-09T09:22:52.473Z,101406.67
2022-11-09T09:25:45.150Z,101403.34
2022-11-09T09:28:39.138Z,101412.52
2022-11-09T09:31:29.774Z,101401.34
2022-11-09T09:34:24.600Z,101393.67
2022-11-09T09:37:17.561Z,101389.66
2022-11-09T09:40:25.805Z,101382.77
2022-11-09T09:43:27.555Z,101388.79
2022-11-09T09:46:24.857Z,101385.59
2022-11-09T09:49:23.745Z,101388.38
2022-11-09T09:52:23.025Z,101384.36
2022-11-09T09:55:31.335Z,101378.23
2022-11-09T09:58:28.664Z,101374.17
2022-11-09T10:01:22.483Z,101368.09
2022-11-09T10:04:23.278Z,101364.02
2022-11-09T10:07:30.210Z,101366.53
2022-11-09T10:10:39.032Z,101359.59
2022-11-09T10:13:50.378Z,101351.40
2022-11-09T10:16:52.381Z,101356.20
2022-11-09T10:19:59.567Z,101352.31
2022-11-09T10:23:10.033Z,101351.73
2022-11-09T10:26:08.915Z,101344.75
2022-11-09T10:29:18.540Z,101341.88
2022-11-09T10:32:16.573Z,101340.88
2022-11-09T10:35:22.190Z,101332.44
2022-11-09T10:38:22.520Z,101334.29
2022-11-09T10:41:41.275Z,101328.32
2022-11-09T10:44:54.280Z,101329.54
2022-11-09T10:48:06.296Z,101330.16
2022-11-09T10:51:41.956Z,101324.17
2022-11-09T10:54:40.334Z,101318.59
2022-11-09T10:57:57.689Z,101326.41
2022-11-09T11:01:15.631Z,101316.75
2022-11-09T11:04:27.738Z,101305.00
2022-11-09T11:07:37.547Z,101305.80
2022-11-09T11:10:49.188Z,101302.28
2022-11-09T11:14:19.967Z,101301.20
2022-11-09T11:17:41.118Z,101296.44
2022-11-09T11:21:06.102Z,101303.20
2022-11-09T11:24:20.097Z,101287.30
2022-11-09T11:27:38.290Z,101290.16
2022-11-09T11:30:49.239Z,101286.62
2022-11-09T11:34:03.630Z,101272.34
2022-11-09T11:37:31.392Z,101274.77
2022-11-09T11:40:52.299Z,101274.08
2022-11-09T11:44:14.876Z,101272.38
2022-11-09T11:47:34.156Z,101271.07
2022-11-09T11:50:51.950Z,101260.92
2022-11-09T11:54:15.462Z,101268.98
2022-11-09T11:57:33.155Z,101265.02
2022-11-09T12:00:53.858Z,101263.11
2022-11-09T12:04:18.045Z,101256.05
2022-11-09T12:07:38.096Z,101258.45
2022-11-09T12:11:00.271Z,101257.58
2022-11-09T12:14:25.480Z,101261.02
2022-11-09T12:17:47.207Z,101258.70
2022-11-09T12:21:06.683Z,101255.57
2022-11-09T12:24:29.230Z,101255.96
2022-11-09T12:30:49.526Z,101247.37
2022-11-09T12:34:07.791Z,101250.81
2022-11-09T12:37:25.017Z,101250.61
2022-11-09T12:40:44.492Z,101249.77
2022-11-09T12:43:59.667Z,101250.61
2022-11-09T12:47:16.794Z,101247.68
2022-11-09T12:50:29.755Z,101246.42
2022-11-09T12:53:42.366Z,101235.22
2022-11-09T12:56:58.169Z,101244.69
2022-11-09T13:00:33.965Z,101240.16
2022-11-09T13:03:57.635Z,101243.64
2022-11-09T13:07:32.884Z,101244.24
2022-11-09T13:10:44.531Z,101241.94
2022-11-09T13:14:14.917Z,101241.94
2022-11-09T13:18:02.453Z,101239.25
2022-11-09T13:21:37.916Z,101236.56
2022-11-09T13:24:59.924Z,101236.77
2022-11-09T13:28:46.430Z,101239.70
2022-11-09T13:32:07.095Z,101230.44
2022-11-09T13:35:51.596Z,101229.84
2022-11-09T13:39:17.420Z,101239.41
2022-11-09T13:42:35.004Z,101234.92
2022-11-09T13:45:48.493Z,101236.63
2022-11-09T13:49:00.726Z,101234.62
2022-11-09T13:52:47.402Z,101242.53
2022-11-09T13:55:59.146Z,101238.84
2022-11-09T13:59:18.665Z,101245.11
2022-11-09T14:02:30.735Z,101240.86
2022-11-09T14:05:42.082Z,101238.22
2022-11-09T14:08:53.444Z,101242.62
2022-11-09T14:12:18.380Z,101243.50
2022-11-09T14:15:41.608Z,101235.48
2022-11-09T14:19:06.211Z,101236.56
2022-11-09T14:22:20.366Z,101238.25
2022-11-09T14:25:36.965Z,101233.14
2022-11-09T14:28:47.903Z,101239.61
2022-11-09T14:31:58.760Z,101235.55
2022-11-09T14:35:23.338Z,101234.77
2022-11-09T14:38:36.800Z,101232.55
2022-11-09T14:41:49.017Z,101230.12
2022-11-09T14:45:01.174Z,101232.45
2022-11-09T14:48:18.375Z,101235.80
2022-11-09T14:51:35.083Z,101228.42
2022-11-09T14:54:48.972Z,101239.02
2022-11-09T14:58:00.714Z,101236.92
2022-11-09T15:01:23.265Z,101238.41
2022-11-09T15:04:52.366Z,101236.58
2022-11-09T15:08:04.103Z,101233.92
2022-11-09T15:11:15.954Z,101229.63
2022-11-09T15:14:33.283Z,101232.92
2022-11-09T15:17:49.207Z,101232.12
2022-11-09T15:21:17.259Z,101232.93
2022-11-09T15:24:30.736Z,101235.81
2022-11-09T15:27:41.417Z,101231.44
2022-11-09T15:31:08.503Z,101236.95
2022-11-09T15:34:26.238Z,101235.27
2022-11-09T15:37:53.784Z,101230.09
2022-11-09T15:41:11.229Z,101240.11
2022-11-09T15:44:22.417Z,101246.42
2022-11-09T15:47:36.925Z,101242.66
2022-11-09T15:50:50.317Z,101251.41
2022-11-09T15:54:00.724Z,101249.66
2022-11-09T15:57:19.529Z,101252.03
2022-11-09T16:00:31.633Z,101251.91
2022-11-09T16:03:42.960Z,101251.41
2022-11-09T16:06:54.006Z,101250.28
2022-11-09T16:10:05.966Z,101255.95
2022-11-09T16:13:16.397Z,101260.78
2022-11-09T16:16:27.495Z,101258.80
2022-11-09T16:19:43.352Z,101251.30
2022-11-09T16:22:54.751Z,101263.30
2022-11-09T16:26:10.209Z,101261.11
2022-11-09T16:29:21.982Z,101267.73
2022-11-09T16:32:33.461Z,101269.86
2022-11-09T16:35:45.289Z,101265.84
2022-11-09T16:38:58.734Z,101266.92
2022-11-09T16:42:09.618Z,101277.84
2022-11-09T16:45:21.787Z,101279.95
2022-11-09T16:48:35.959Z,101270.39
2022-11-09T16:51:47.099Z,101266.80
2022-11-09T16:54:58.799Z,101273.05
2022-11-09T16:58:10.869Z,101271.11
2022-11-09T17:01:23.661Z,101275.30
2022-11-09T17:04:34.478Z,101270.90
2022-11-09T17:07:45.560Z,101269.97
2022-11-09T17:10:57.266Z,101265.36
2022-11-09T17:14:08.042Z,101271.39
2022-11-09T17:17:22.653Z,101273.12
2022-11-09T17:20:34.785Z,101269.52
2022-11-09T17:23:46.601Z,101272.04
2022-11-09T17:26:58.559Z,101265.61
2022-11-09T17:30:12.354Z,101265.67
2022-11-09T17:33:24.915Z,101270.84
2022-11-09T17:37:02.321Z,101267.23
2022-11-09T17:40:09.570Z,101264.44
2022-11-09T17:43:22.244Z,101265.33
2022-11-09T17:46:33.080Z,101277.46
2022-11-09T17:49:44.350Z,101270.16
2022-11-09T17:52:55.322Z,101273.69
2022-11-09T17:56:09.888Z,101278.20
2022-11-09T17:59:20.348Z,101277.23
2022-11-09T18:02:31.835Z,101275.45
2022-11-09T18:05:43.741Z,101281.26
2022-11-09T18:09:26.800Z,101273.81
2022-11-09T18:12:26.692Z,101270.19
2022-11-09T18:15:39.681Z,101273.34
2022-11-09T18:18:50.310Z,101275.86
2022-11-09T18:22:02.977Z,101272.04
2022-11-09T18:25:16.235Z,101275.38
2022-11-09T18:28:28.041Z,101273.39
2022-11-09T18:31:39.145Z,101273.07
2022-11-09T18:34:51.019Z,101279.89
2022-11-09T18:38:01.978Z,101274.26
2022-11-09T18:41:15.589Z,101281.05
2022-11-09T18:44:26.692Z,101281.71
2022-11-09T18:47:37.785Z,101279.72
2022-11-09T18:50:53.777Z,101274.09
2022-11-09T18:54:04.661Z,101278.25
2022-11-09T18:57:19.647Z,101274.41
2022-11-09T19:00:30.543Z,101279.56
2022-11-09T19:03:41.789Z,101279.23
2022-11-09T19:06:54.533Z,101275.39
2022-11-09T19:10:06.802Z,101282.20
2022-11-09T19:13:18.916Z,101285.32
2022-11-09T19:16:30.640Z,101283.17
2022-11-09T19:19:42.487Z,101290.11
2022-11-09T19:22:53.363Z,101283.63
2022-11-09T19:26:05.327Z,101285.93
2022-11-09T19:29:18.100Z,101293.39
2022-11-09T19:32:29.924Z,101292.02
2022-11-09T19:35:40.946Z,101292.66
2022-11-09T19:38:52.895Z,101297.75
2022-11-09T19:42:04.640Z,101284.16
2022-11-09T19:45:16.023Z,101289.95
2022-11-09T19:48:28.665Z,101296.55
2022-11-09T19:51:40.638Z,101294.36
2022-11-09T19:54:51.612Z,101292.20
2022-11-09T19:58:02.589Z,101294.50
2022-11-09T20:01:14.939Z,101293.47
2022-11-09T20:04:26.366Z,101302.69
2022-11-09T20:07:38.121Z,101295.23
2022-11-09T20:10:49.401Z,101301.65
2022-11-09T20:14:00.437Z,101298.64
2022-11-09T20:17:11.176Z,101303.27
2022-11-09T20:20:22.399Z,101302.76
2022-11-09T20:23:33.862Z,101301.41
2022-11-09T20:26:45.565Z,101303.52
2022-11-09T20:29:56.970Z,101292.57
2022-11-09T20:33:09.786Z,101299.16
2022-11-09T20:36:21.463Z,101304.45
2022-11-09T20:39:32.948Z,101304.08
2022-11-09T20:42:44.080Z,101301.61
2022-11-09T20:45:55.171Z,101296.62
2022-11-09T20:49:06.588Z,101299.58
2022-11-09T20:52:18.569Z,101287.47
2022-11-09T20:55:30.647Z,101290.42
2022-11-09T20:58:41.750Z,101282.13
2022-11-09T21:01:53.537Z,101293.85
2022-11-09T21:05:05.256Z,101289.85
2022-11-09T21:08:16.336Z,101297.92
2022-11-09T21:11:29.088Z,101291.28
2022-11-09T21:14:39.822Z,101288.94
2022-11-09T21:17:52.745Z,101294.70
2022-11-09T21:21:09.777Z,101297.78
2022-11-09T21:24:38.550Z,101301.71
2022-11-09T21:28:07.038Z,101295.06
2022-11-09T21:31:18.388Z,101295.37
2022-11-09T21:34:35.390Z,101301.80
2022-11-09T21:37:47.909Z,101302.10
2022-11-09T21:41:23.502Z,101299.77
2022-11-09T21:44:35.223Z,101304.50
2022-11-09T21:47:47.138Z,101303.14
2022-11-09T21:51:00.724Z,101308.59
2022-11-09T21:54:12.490Z,101301.09
2022-11-09T21:57:23.661Z,101304.87
2022-11-09T22:00:34.537Z,101303.52
2022-11-09T22:03:46.600Z,101304.80
2022-11-09T22:06:57.685Z,101304.23
2022-11-09T22:10:11.770Z,101302.74
2022-11-09T22:13:40.087Z,101299.55
2022-11-09T22:16:51.271Z,101298.05
2022-11-09T22:20:20.465Z,101308.91
2022-11-09T22:23:31.726Z,101299.45
2022-11-09T22:26:44.057Z,101304.05
2022-11-09T22:29:55.076Z,101307.67
2022-11-09T22:33:06.468Z,101303.53
2022-11-09T22:36:18.740Z,101299.52
2022-11-09T22:39:29.594Z,101300.80
2022-11-09T22:42:40.960Z,101300.11
2022-11-09T22:45:51.956Z,101298.73
2022-11-09T22:49:03.033Z,101304.31
2022-11-09T22:52:14.974Z,101300.98
2022-11-09T22:55:26.500Z,101295.44
2022-11-09T22:58:37.130Z,101299.51
2022-11-09T23:01:48.306Z,101297.97
2022-11-09T23:04:59.922Z,101305.08
2022-11-09T23:08:11.248Z,101301.75
2022-11-09T23:11:25.113Z,101304.52
2022-11-09T23:14:59.709Z,101292.30
2022-11-09T23:18:29.641Z,101294.22
2022-11-09T23:21:40.938Z,101289.92
2022-11-09T23:25:08.989Z,101297.83
2022-11-09T23:28:20.987Z,101295.35
2022-11-09T23:31:31.776Z,101297.30
2022-11-09T23:34:42.866Z,101293.82
2022-11-09T23:38:02.413Z,101298.28
2022-11-09T23:41:14.473Z,101300.23
2022-11-09T23:44:25.564Z,101303.28
2022-11-09T23:47:37.588Z,101300.80
2022-11-09T23:50:49.548Z,101312.33
2022-11-09T23:54:00.551Z,101306.49
2022-11-09T23:57:12.076Z,101305.80
